createdAt,value
2023-01-31T00:00:43.070Z,16.77
2023-01-31T00:03:09.443Z,21.33
2023-01-31T00:05:37.216Z,28.00
2023-01-31T00:08:03.844Z,19.53
2023-01-31T00:10:30.295Z,25.33
2023-01-31T00:12:56.920Z,22.70
2023-01-31T00:15:23.876Z,19.10
2023-01-31T00:17:50.781Z,14.50
2023-01-31T00:20:17.341Z,21.93
2023-01-31T00:22:43.749Z,15.60
2023-01-31T00:25:10.568Z,15.40
2023-01-31T00:27:37.566Z,15.90
2023-01-31T00:30:04.316Z,13.23
2023-01-31T00:32:30.690Z,14.17
2023-01-31T00:34:57.124Z,15.73
2023-01-31T00:37:23.566Z,22.27
2023-01-31T00:39:49.950Z,14.40
2023-01-31T00:42:16.371Z,18.40
2023-01-31T00:44:42.773Z,25.13
2023-01-31T00:47:09.239Z,19.13
2023-01-31T00:49:36.042Z,7.47
2023-01-31T00:52:02.495Z,17.80
2023-01-31T00:54:28.977Z,13.40
2023-01-31T00:56:55.456Z,21.33
2023-01-31T00:59:21.866Z,19.43
2023-01-31T01:01:48.285Z,19.83
2023-01-31T01:04:14.790Z,17.93
2023-01-31T01:06:41.700Z,17.33
2023-01-31T01:09:08.094Z,17.93
2023-01-31T01:11:36.050Z,13.67
2023-01-31T01:14:02.857Z,15.30
2023-01-31T01:16:34.472Z,15.80
2023-01-31T01:19:01.960Z,11.60
2023-01-31T01:21:29.610Z,11.60
2023-01-31T01:23:56.829Z,10.67
2023-01-31T01:26:25.566Z,17.70
2023-01-31T01:28:52.605Z,12.93
2023-01-31T01:31:19.714Z,6.87
2023-01-31T01:33:47.011Z,10.50
2023-01-31T01:36:16.200Z,8.73
2023-01-31T01:38:43.880Z,9.97
2023-01-31T01:41:10.968Z,8.63
2023-01-31T01:43:48.882Z,10.93
2023-01-31T01:46:17.482Z,9.30
2023-01-31T01:48:45.215Z,5.90
2023-01-31T01:53:44.944Z,19.93
2023-01-31T01:56:14.119Z,17.03
2023-01-31T01:58:44.239Z,20.37
2023-01-31T02:01:13.777Z,19.87
2023-01-31T02:03:43.215Z,10.83
2023-01-31T02:06:09.652Z,22.63
2023-01-31T02:08:37.609Z,26.10
2023-01-31T02:11:15.775Z,18.70
2023-01-31T02:13:42.624Z,20.77
2023-01-31T02:16:09.358Z,29.23
2023-01-31T02:18:35.858Z,22.37
2023-01-31T02:21:02.269Z,18.77
2023-01-31T02:23:28.600Z,21.03
2023-01-31T02:26:13.893Z,25.63
2023-01-31T02:28:40.413Z,22.10
2023-01-31T02:31:30.051Z,18.80
2023-01-31T02:34:08.623Z,21.70
2023-01-31T02:36:52.407Z,23.60
2023-01-31T02:39:28.146Z,13.50
2023-01-31T02:42:04.685Z,15.47
2023-01-31T02:44:54.072Z,15.43
2023-01-31T02:47:20.793Z,20.07
2023-01-31T02:49:51.031Z,29.23
2023-01-31T02:52:17.485Z,21.60
2023-01-31T02:55:15.115Z,23.80
2023-01-31T02:57:43.309Z,18.77
2023-01-31T03:00:10.377Z,22.50
2023-01-31T03:02:36.805Z,11.30
2023-01-31T03:05:03.538Z,22.77
2023-01-31T03:07:33.701Z,15.93
2023-01-31T03:10:16.849Z,14.63
2023-01-31T03:12:49.142Z,10.80
2023-01-31T03:15:21.972Z,13.87
2023-01-31T03:17:51.560Z,17.43
2023-01-31T03:20:20.978Z,14.00
2023-01-31T03:22:52.955Z,15.60
2023-01-31T03:25:22.150Z,20.70
2023-01-31T03:27:52.840Z,16.33
2023-01-31T03:30:22.417Z,10.27
2023-01-31T03:33:00.384Z,13.20
2023-01-31T03:35:29.570Z,15.70
2023-01-31T03:38:00.665Z,13.77
2023-01-31T03:40:43.408Z,16.50
2023-01-31T03:43:39.365Z,17.70
2023-01-31T03:46:16.893Z,18.47
2023-01-31T03:48:46.027Z,15.47
2023-01-31T03:51:15.536Z,15.97
2023-01-31T03:53:46.596Z,11.63
2023-01-31T03:56:16.125Z,13.83
2023-01-31T03:58:45.679Z,17.03
2023-01-31T04:01:12.975Z,17.60
2023-01-31T04:03:42.189Z,19.70
2023-01-31T04:06:09.251Z,24.33
2023-01-31T04:08:36.238Z,20.67
2023-01-31T04:11:09.095Z,22.57
2023-01-31T04:13:35.662Z,16.50
2023-01-31T04:16:02.426Z,20.80
2023-01-31T04:18:28.843Z,21.17
2023-01-31T04:20:55.329Z,21.77
2023-01-31T04:23:22.129Z,26.97
2023-01-31T04:25:48.647Z,13.87
2023-01-31T04:28:15.032Z,22.80
2023-01-31T04:30:41.399Z,21.53
2023-01-31T04:33:07.805Z,18.87
2023-01-31T04:35:35.070Z,34.20
2023-01-31T04:38:01.509Z,27.70
2023-01-31T04:40:30.168Z,25.67
2023-01-31T04:42:56.577Z,15.03
2023-01-31T04:45:23.094Z,20.20
2023-01-31T04:47:49.483Z,21.43
2023-01-31T04:50:16.032Z,27.07
2023-01-31T04:52:42.452Z,16.27
2023-01-31T04:55:09.271Z,33.47
2023-01-31T04:57:35.703Z,22.70
2023-01-31T05:00:02.134Z,23.70
2023-01-31T05:02:30.565Z,23.93
2023-01-31T05:04:57.146Z,25.00
2023-01-31T05:07:23.849Z,27.40
2023-01-31T05:09:50.267Z,23.73
2023-01-31T05:12:16.633Z,23.43
2023-01-31T05:14:43.075Z,16.40
2023-01-31T05:17:10.004Z,24.30
2023-01-31T05:19:36.431Z,14.80
2023-01-31T05:22:02.793Z,18.67
2023-01-31T05:24:30.661Z,27.13
2023-01-31T05:27:01.597Z,22.63
2023-01-31T05:29:28.869Z,19.93
2023-01-31T05:31:56.996Z,29.37
2023-01-31T05:34:25.236Z,20.00
2023-01-31T05:36:52.452Z,29.83
2023-01-31T05:39:19.134Z,20.87
2023-01-31T05:41:45.642Z,21.50
2023-01-31T05:44:12.116Z,21.80
2023-01-31T05:46:38.591Z,19.70
2023-01-31T05:49:04.972Z,21.03
2023-01-31T05:51:31.522Z,18.33
2023-01-31T05:53:57.878Z,19.97
2023-01-31T05:56:24.317Z,24.57
2023-01-31T05:58:51.151Z,13.13
2023-01-31T06:01:18.197Z,27.43
2023-01-31T06:03:44.602Z,24.57
2023-01-31T06:06:11.050Z,27.00
2023-01-31T06:08:37.578Z,24.93
2023-01-31T06:11:04.968Z,17.27
2023-01-31T06:13:34.249Z,31.23
2023-01-31T06:16:00.830Z,26.23
2023-01-31T06:18:27.305Z,31.30
2023-01-31T06:20:53.776Z,18.47
2023-01-31T06:23:20.366Z,21.60
2023-01-31T06:25:50.514Z,31.07
2023-01-31T06:28:17.298Z,22.27
2023-01-31T06:30:43.816Z,25.47
2023-01-31T06:33:10.568Z,24.83
2023-01-31T06:35:37.136Z,33.50
2023-01-31T06:38:03.605Z,13.33
2023-01-31T06:40:30.871Z,28.50
2023-01-31T06:42:57.841Z,20.03
2023-01-31T06:45:24.605Z,21.73
2023-01-31T06:47:51.039Z,21.40
2023-01-31T06:50:17.665Z,23.53
2023-01-31T06:52:44.213Z,30.03
2023-01-31T06:55:11.756Z,22.07
2023-01-31T06:57:45.601Z,33.17
2023-01-31T07:00:12.303Z,16.00
2023-01-31T07:02:38.785Z,23.40
2023-01-31T07:05:05.430Z,22.80
2023-01-31T07:07:32.387Z,27.77
2023-01-31T07:09:58.927Z,19.23
2023-01-31T07:12:25.367Z,18.53
2023-01-31T07:14:52.072Z,21.67
2023-01-31T07:17:21.188Z,28.10
2023-01-31T07:19:47.694Z,24.77
2023-01-31T07:22:14.136Z,14.00
2023-01-31T07:24:40.722Z,21.50
2023-01-31T07:27:07.414Z,28.03
2023-01-31T07:29:33.886Z,23.90
2023-01-31T07:32:00.392Z,14.33
2023-01-31T07:34:26.933Z,25.67
2023-01-31T07:36:53.365Z,18.67
2023-01-31T07:39:20.796Z,16.27
2023-01-31T07:41:47.173Z,29.17
2023-01-31T07:44:14.969Z,18.60
2023-01-31T07:46:41.761Z,24.57
2023-01-31T07:49:11.364Z,15.37
2023-01-31T07:51:39.077Z,31.70
2023-01-31T07:54:06.361Z,15.17
2023-01-31T07:56:33.235Z,15.10
2023-01-31T07:59:00.034Z,22.47
2023-01-31T08:01:46.477Z,23.27
2023-01-31T08:04:21.557Z,21.33
2023-01-31T08:06:49.435Z,21.70
2023-01-31T08:09:16.002Z,22.83
2023-01-31T08:11:42.811Z,20.03
2023-01-31T08:14:10.111Z,26.33
2023-01-31T08:16:37.050Z,19.37
2023-01-31T08:19:03.720Z,32.50
2023-01-31T08:21:30.568Z,23.93
2023-01-31T08:23:57.213Z,31.67
2023-01-31T08:26:23.810Z,25.10
2023-01-31T08:28:51.610Z,29.80
2023-01-31T08:31:22.209Z,30.03
2023-01-31T08:33:51.383Z,34.77
2023-01-31T08:36:19.333Z,23.47
2023-01-31T08:38:46.438Z,23.00
2023-01-31T08:41:13.296Z,24.43
2023-01-31T08:43:54.111Z,21.47
2023-01-31T08:46:22.348Z,16.70
2023-01-31T08:48:48.880Z,21.27
2023-01-31T08:51:15.266Z,25.10
2023-01-31T08:53:43.641Z,25.03
2023-01-31T08:56:10.687Z,17.37
2023-01-31T08:58:38.231Z,16.63
2023-01-31T09:01:05.460Z,18.87
2023-01-31T09:03:32.353Z,29.37
2023-01-31T09:06:00.201Z,22.03
2023-01-31T09:08:26.592Z,33.67
2023-01-31T09:10:53.654Z,21.53
2023-01-31T09:13:22.147Z,22.73
2023-01-31T09:15:57.389Z,22.17
2023-01-31T09:18:23.791Z,33.23
2023-01-31T09:20:50.199Z,24.83
2023-01-31T09:23:16.615Z,24.57
2023-01-31T09:25:47.434Z,24.77
2023-01-31T09:28:14.601Z,22.33
2023-01-31T09:30:41.008Z,23.20
2023-01-31T09:33:07.468Z,26.27
2023-01-31T09:35:34.225Z,22.53
2023-01-31T09:38:00.671Z,21.23
2023-01-31T09:40:29.708Z,26.50
2023-01-31T09:42:56.956Z,19.70
2023-01-31T09:45:28.694Z,21.70
2023-01-31T09:47:57.400Z,22.40
2023-01-31T09:50:30.728Z,18.87
2023-01-31T09:52:58.712Z,17.17
2023-01-31T09:55:43.715Z,17.60
2023-01-31T09:58:34.256Z,22.60
2023-01-31T10:01:14.520Z,17.00
2023-01-31T10:03:40.938Z,18.43
2023-01-31T10:06:07.487Z,25.17
2023-01-31T10:08:57.147Z,24.83
2023-01-31T10:11:30.684Z,17.23
2023-01-31T10:14:01.312Z,25.27
2023-01-31T10:16:31.677Z,17.87
2023-01-31T10:19:01.793Z,23.23
2023-01-31T10:21:34.915Z,19.03
2023-01-31T10:24:09.461Z,27.90
2023-01-31T10:26:38.913Z,18.33
2023-01-31T10:29:23.875Z,24.77
2023-01-31T10:31:58.918Z,20.53
2023-01-31T10:34:28.051Z,21.57
2023-01-31T10:37:06.914Z,26.60
2023-01-31T10:39:36.438Z,24.00
2023-01-31T10:42:05.833Z,22.60
2023-01-31T10:44:36.476Z,21.07
2023-01-31T10:47:03.211Z,18.77
2023-01-31T10:49:29.674Z,23.63
2023-01-31T10:52:12.127Z,23.47
2023-01-31T10:54:57.393Z,25.00
2023-01-31T10:57:23.899Z,19.47
2023-01-31T10:59:50.676Z,16.97
2023-01-31T11:02:36.804Z,20.17
2023-01-31T11:05:03.481Z,16.87
2023-01-31T11:07:31.338Z,23.60
2023-01-31T11:09:58.701Z,20.80
2023-01-31T11:12:53.022Z,22.40
2023-01-31T11:15:20.383Z,15.87
2023-01-31T11:17:47.327Z,19.27
2023-01-31T11:20:26.397Z,28.20
2023-01-31T11:22:54.879Z,16.40
2023-01-31T11:25:22.724Z,20.83
2023-01-31T11:27:49.861Z,25.90
2023-01-31T11:30:27.673Z,18.77
2023-01-31T11:32:56.842Z,22.37
2023-01-31T11:35:25.630Z,18.53
2023-01-31T11:37:57.592Z,20.43
2023-01-31T11:40:27.812Z,14.57
2023-01-31T11:42:55.657Z,21.63
2023-01-31T11:45:23.281Z,19.33
2023-01-31T11:47:53.636Z,20.43
2023-01-31T11:50:37.725Z,16.10
2023-01-31T11:53:14.748Z,16.47
2023-01-31T11:55:42.024Z,12.10
2023-01-31T11:58:47.648Z,13.67
2023-01-31T12:01:18.191Z,17.50
2023-01-31T12:04:03.243Z,19.80
2023-01-31T12:06:34.735Z,13.63
2023-01-31T12:09:02.641Z,12.60
2023-01-31T12:11:29.273Z,16.40
2023-01-31T12:14:02.942Z,19.53
2023-01-31T12:16:30.598Z,12.23
2023-01-31T12:19:01.136Z,10.83
2023-01-31T12:21:27.674Z,14.33
2023-01-31T12:23:54.123Z,16.17
2023-01-31T12:26:39.277Z,13.43
2023-01-31T12:29:25.733Z,8.27
2023-01-31T12:32:15.180Z,13.07
2023-01-31T12:35:02.456Z,10.97
2023-01-31T12:37:36.481Z,11.07
2023-01-31T12:40:24.288Z,10.83
2023-01-31T12:42:54.773Z,5.90
2023-01-31T12:45:40.184Z,7.37
2023-01-31T12:48:14.580Z,8.23
2023-01-31T12:51:03.269Z,10.50
2023-01-31T12:53:48.515Z,5.53
2023-01-31T12:56:21.273Z,4.00
2023-01-31T12:59:06.284Z,6.43
2023-01-31T13:01:48.643Z,3.57
2023-01-31T13:04:26.420Z,6.27
2023-01-31T13:06:55.286Z,2.97
2023-01-31T13:09:25.337Z,8.40
2023-01-31T13:11:56.562Z,7.00
2023-01-31T13:14:24.559Z,9.33
2023-01-31T13:17:00.364Z,3.03
2023-01-31T13:19:34.266Z,3.77
2023-01-31T13:22:03.682Z,4.43
2023-01-31T13:24:36.615Z,7.13
2023-01-31T13:27:11.495Z,5.47
2023-01-31T13:29:43.415Z,5.20
2023-01-31T13:32:19.549Z,6.83
2023-01-31T13:34:51.344Z,12.30
2023-01-31T13:37:21.209Z,8.87
2023-01-31T13:39:53.904Z,7.00
2023-01-31T13:42:20.600Z,9.80
2023-01-31T13:44:48.194Z,10.53
2023-01-31T13:47:17.691Z,8.40
2023-01-31T13:49:49.952Z,9.77
2023-01-31T13:52:16.501Z,5.97
2023-01-31T13:54:49.032Z,9.10
2023-01-31T13:57:24.633Z,13.10
2023-01-31T14:00:03.689Z,8.33
2023-01-31T14:02:31.115Z,8.17
2023-01-31T14:05:04.923Z,12.23
2023-01-31T14:07:31.847Z,14.80
2023-01-31T14:09:58.207Z,15.17
2023-01-31T14:12:24.703Z,14.53
2023-01-31T14:14:55.860Z,11.90
2023-01-31T14:17:22.273Z,11.67
2023-01-31T14:19:49.592Z,8.00
2023-01-31T14:22:18.837Z,11.57
2023-01-31T14:24:46.035Z,13.00
2023-01-31T14:27:22.607Z,17.67
2023-01-31T14:30:12.066Z,12.87
2023-01-31T14:32:38.496Z,6.57
2023-01-31T14:35:10.720Z,13.43
2023-01-31T14:37:46.195Z,17.57
2023-01-31T14:40:29.883Z,9.27
2023-01-31T14:43:14.804Z,13.00
2023-01-31T14:45:47.291Z,21.03
2023-01-31T14:48:26.644Z,14.13
2023-01-31T14:51:19.241Z,20.93
2023-01-31T14:53:48.665Z,13.63
2023-01-31T14:56:27.761Z,14.80
2023-01-31T14:58:54.665Z,19.77
2023-01-31T15:01:23.389Z,15.77
2023-01-31T15:03:55.008Z,22.10
2023-01-31T15:06:26.087Z,15.83
2023-01-31T15:09:12.470Z,15.40
2023-01-31T15:11:42.629Z,29.33
2023-01-31T15:14:41.358Z,31.47
2023-01-31T15:17:34.421Z,17.70
2023-01-31T15:20:17.041Z,25.07
2023-01-31T15:22:44.187Z,27.90
2023-01-31T15:25:26.004Z,20.73
2023-01-31T15:27:54.990Z,20.73
2023-01-31T15:30:22.574Z,32.27
2023-01-31T15:32:55.220Z,34.67
2023-01-31T15:35:59.268Z,37.10
2023-01-31T15:38:38.249Z,28.07
2023-01-31T15:41:07.516Z,25.43
2023-01-31T15:43:38.957Z,22.80
2023-01-31T15:46:36.286Z,25.67
2023-01-31T15:49:08.677Z,26.07
2023-01-31T15:51:35.120Z,25.53
2023-01-31T15:54:06.912Z,41.37
2023-01-31T15:56:35.476Z,32.50
2023-01-31T15:59:04.775Z,28.80
2023-01-31T16:01:33.487Z,21.90
2023-01-31T16:04:03.572Z,34.47
2023-01-31T16:06:39.014Z,30.73
2023-01-31T16:09:06.630Z,22.67
2023-01-31T16:11:35.987Z,27.50
2023-01-31T16:14:03.550Z,26.63
2023-01-31T16:16:32.446Z,23.47
2023-01-31T16:18:59.665Z,24.57
2023-01-31T16:21:32.400Z,16.43
2023-01-31T16:24:00.563Z,10.57
2023-01-31T16:26:29.244Z,14.33
2023-01-31T16:28:58.884Z,14.60
2023-01-31T16:31:32.440Z,11.53
2023-01-31T16:34:04.546Z,18.93
2023-01-31T16:36:33.023Z,14.00
2023-01-31T16:39:00.995Z,13.03
2023-01-31T16:41:39.236Z,13.40
2023-01-31T16:44:06.449Z,17.57
2023-01-31T16:46:37.621Z,13.43
2023-01-31T16:49:05.528Z,9.50
2023-01-31T16:51:34.999Z,14.53
2023-01-31T16:54:19.737Z,23.10
2023-01-31T16:56:47.542Z,24.20
2023-01-31T16:59:33.199Z,18.17
2023-01-31T17:02:19.710Z,22.03
2023-01-31T17:04:47.544Z,19.87
2023-01-31T17:07:23.256Z,24.03
2023-01-31T17:09:54.483Z,31.93
2023-01-31T17:12:22.720Z,17.53
2023-01-31T17:14:53.331Z,23.90
2023-01-31T17:17:22.136Z,26.40
2023-01-31T17:19:48.701Z,31.73
2023-01-31T17:22:15.614Z,38.40
2023-01-31T17:24:44.344Z,22.23
2023-01-31T17:27:13.689Z,22.70
2023-01-31T17:29:40.159Z,33.00
2023-01-31T17:32:07.770Z,27.40
2023-01-31T17:34:34.687Z,34.97
2023-01-31T17:37:01.163Z,33.13
2023-01-31T17:39:27.630Z,28.93
2023-01-31T17:41:54.064Z,23.50
2023-01-31T17:44:22.325Z,42.30
2023-01-31T17:46:48.926Z,28.77
2023-01-31T17:49:16.680Z,29.47
2023-01-31T17:51:45.476Z,34.73
2023-01-31T17:54:11.941Z,31.17
2023-01-31T17:56:38.683Z,39.43
2023-01-31T17:59:05.816Z,33.07
2023-01-31T18:01:33.271Z,34.77
2023-01-31T18:04:00.827Z,33.17
2023-01-31T18:06:27.210Z,34.20
2023-01-31T18:08:54.824Z,48.80
2023-01-31T18:11:22.700Z,31.63
2023-01-31T18:13:49.480Z,34.33
2023-01-31T18:16:21.568Z,32.17
2023-01-31T18:18:51.052Z,38.93
2023-01-31T18:21:19.986Z,34.50
2023-01-31T18:23:50.772Z,43.33
2023-01-31T18:26:17.926Z,39.63
2023-01-31T18:28:44.733Z,46.57
2023-01-31T18:31:13.990Z,24.93
2023-01-31T18:33:40.815Z,38.53
2023-01-31T18:36:10.042Z,47.73
2023-01-31T18:38:36.484Z,34.23
2023-01-31T18:41:05.441Z,53.70
2023-01-31T18:43:31.894Z,52.17
2023-01-31T18:45:58.271Z,54.40
2023-01-31T18:48:24.769Z,35.60
2023-01-31T18:50:51.231Z,44.17
2023-01-31T18:53:17.677Z,42.10
2023-01-31T18:55:44.056Z,58.13
2023-01-31T18:58:10.569Z,45.57
2023-01-31T19:00:37.166Z,42.63
2023-01-31T19:03:03.793Z,47.37
2023-01-31T19:05:30.672Z,41.67
2023-01-31T19:07:57.034Z,38.40
2023-01-31T19:10:23.506Z,42.73
2023-01-31T19:12:50.027Z,29.40
2023-01-31T19:15:16.514Z,30.97
2023-01-31T19:17:45.062Z,32.70
2023-01-31T19:20:11.770Z,36.03
2023-01-31T19:22:40.749Z,35.87
2023-01-31T19:25:09.240Z,45.40
2023-01-31T19:27:35.890Z,31.33
2023-01-31T19:30:02.288Z,38.87
2023-01-31T19:32:30.320Z,41.43
2023-01-31T19:34:56.679Z,44.20
2023-01-31T19:37:24.102Z,29.93
2023-01-31T19:39:50.545Z,35.00
2023-01-31T19:42:17.008Z,34.37
2023-01-31T19:44:43.472Z,33.40
2023-01-31T19:47:09.942Z,37.60
2023-01-31T19:49:36.451Z,37.43
2023-01-31T19:52:02.998Z,33.50
2023-01-31T19:54:29.428Z,33.83
2023-01-31T19:56:55.789Z,33.87
2023-01-31T19:59:22.222Z,41.87
2023-01-31T20:01:48.638Z,40.97
2023-01-31T20:04:15.106Z,35.67
2023-01-31T20:06:41.497Z,30.97
2023-01-31T20:09:09.423Z,35.47
2023-01-31T20:11:36.828Z,33.23
2023-01-31T20:14:04.612Z,36.00
2023-01-31T20:16:31.045Z,38.43
2023-01-31T20:19:01.076Z,33.73
2023-01-31T20:21:27.491Z,46.40
2023-01-31T20:23:53.935Z,34.73
2023-01-31T20:26:22.352Z,38.43
2023-01-31T20:28:49.408Z,39.43
2023-01-31T20:31:16.486Z,33.90
2023-01-31T20:33:43.154Z,43.43
2023-01-31T20:36:09.619Z,40.33
2023-01-31T20:38:38.986Z,44.87
2023-01-31T20:41:06.887Z,38.03
2023-01-31T20:43:33.371Z,25.77
2023-01-31T20:46:06.722Z,38.30
2023-01-31T20:48:33.295Z,41.83
2023-01-31T20:50:59.999Z,41.03
2023-01-31T20:53:28.769Z,50.97
2023-01-31T20:56:02.388Z,38.87
2023-01-31T20:58:30.970Z,40.57
2023-01-31T21:01:00.219Z,48.13
2023-01-31T21:03:27.198Z,52.77
2023-01-31T21:05:55.065Z,44.23
2023-01-31T21:08:21.588Z,42.00
2023-01-31T21:10:49.016Z,42.60
2023-01-31T21:13:15.448Z,41.27
2023-01-31T21:15:46.480Z,42.83
2023-01-31T21:18:13.013Z,37.87
2023-01-31T21:20:39.509Z,46.03
2023-01-31T21:23:05.902Z,41.33
2023-01-31T21:25:32.713Z,44.60
2023-01-31T21:28:02.735Z,47.07
2023-01-31T21:30:30.396Z,33.90
2023-01-31T21:32:56.835Z,35.97
2023-01-31T21:35:23.474Z,44.47
2023-01-31T21:37:49.855Z,32.23
2023-01-31T21:40:16.444Z,41.47
2023-01-31T21:42:43.081Z,38.60
2023-01-31T21:45:09.699Z,46.23
2023-01-31T21:47:59.264Z,41.83
2023-01-31T21:50:25.661Z,28.37
2023-01-31T21:52:52.093Z,24.67
2023-01-31T21:55:18.830Z,41.37
2023-01-31T21:57:45.668Z,26.77
2023-01-31T22:00:12.818Z,28.93
2023-01-31T22:02:40.292Z,23.80
2023-01-31T22:05:06.872Z,29.37
2023-01-31T22:07:33.229Z,24.70
2023-01-31T22:09:59.687Z,44.80
2023-01-31T22:12:26.166Z,35.43
2023-01-31T22:14:52.610Z,41.83
2023-01-31T22:17:18.981Z,37.50
2023-01-31T22:19:45.697Z,23.53
2023-01-31T22:22:12.048Z,45.57
2023-01-31T22:24:38.594Z,37.53
2023-01-31T22:27:04.958Z,26.87
2023-01-31T22:29:31.300Z,32.43
2023-01-31T22:31:57.756Z,33.23
2023-01-31T22:34:24.138Z,29.67
2023-01-31T22:36:50.570Z,40.13
2023-01-31T22:39:16.973Z,37.63
2023-01-31T22:41:44.802Z,31.53
2023-01-31T22:44:11.263Z,41.10
2023-01-31T22:46:37.779Z,31.57
2023-01-31T22:49:04.219Z,37.33
2023-01-31T22:51:30.593Z,35.57
2023-01-31T22:53:57.811Z,31.13
2023-01-31T22:56:26.164Z,35.20
2023-01-31T22:58:59.137Z,29.07
2023-01-31T23:01:26.943Z,29.73
2023-01-31T23:04:00.553Z,32.87
2023-01-31T23:06:27.393Z,24.87
2023-01-31T23:08:54.126Z,26.33
2023-01-31T23:11:20.995Z,25.70
2023-01-31T23:13:47.384Z,31.97
2023-01-31T23:16:18.607Z,40.07
2023-01-31T23:18:45.359Z,32.73
2023-01-31T23:21:13.353Z,32.97
2023-01-31T23:23:39.818Z,26.00
2023-01-31T23:26:06.286Z,30.53
2023-01-31T23:28:32.939Z,28.77
2023-01-31T23:30:59.406Z,28.20
2023-01-31T23:33:26.016Z,31.00
2023-01-31T23:35:52.687Z,26.10
2023-01-31T23:38:19.498Z,45.20
2023-01-31T23:40:52.985Z,35.63
2023-01-31T23:43:20.133Z,31.63
2023-01-31T23:45:46.616Z,33.53
2023-01-31T23:48:13.007Z,36.00
2023-01-31T23:50:39.538Z,30.53
2023-01-31T23:53:06.001Z,23.60
2023-01-31T23:55:32.574Z,31.40
2023-01-31T23:57:58.936Z,27.00
